createdAt,value
2024-04-30T00:00:26.222Z,7.31
2024-04-30T00:00:56.286Z,7.31
2024-04-30T00:01:27.243Z,7.31
2024-04-30T00:01:59.146Z,7.21
2024-04-30T00:02:29.194Z,7.21
2024-04-30T00:03:00.322Z,7.21
2024-04-30T00:03:31.284Z,7.21
2024-04-30T00:04:02.664Z,7.21
2024-04-30T00:04:33.949Z,7.21
2024-04-30T00:05:04.826Z,7.11
2024-04-30T00:05:35.592Z,7.11
2024-04-30T00:06:06.532Z,7.11
2024-04-30T00:06:37.573Z,7.11
2024-04-30T00:07:08.650Z,7.11
2024-04-30T00:07:39.559Z,7.11
2024-04-30T00:08:10.543Z,7.11
2024-04-30T00:08:41.766Z,7.11
2024-04-30T00:09:12.550Z,7.11
2024-04-30T00:09:43.583Z,7.11
2024-04-30T00:10:15.044Z,7.11
2024-04-30T00:10:46.438Z,7.11
2024-04-30T00:11:16.601Z,7.28
2024-04-30T00:11:47.526Z,7.28
2024-04-30T00:12:18.631Z,7.11
2024-04-30T00:12:49.537Z,7.11
2024-04-30T00:13:20.906Z,7.11
2024-04-30T00:13:51.609Z,7.11
2024-04-30T00:14:22.544Z,7.11
2024-04-30T00:14:53.558Z,7.11
2024-04-30T00:15:25.143Z,7.11
2024-04-30T00:15:55.574Z,7.28
2024-04-30T00:16:26.577Z,7.28
2024-04-30T00:16:57.545Z,7.28
2024-04-30T00:17:28.483Z,7.28
2024-04-30T00:17:59.628Z,7.28
2024-04-30T00:18:30.559Z,7.28
2024-04-30T00:19:02.034Z,7.28
2024-04-30T00:19:32.622Z,7.28
2024-04-30T00:20:03.774Z,7.18
2024-04-30T00:20:34.543Z,7.18
2024-04-30T00:21:05.557Z,7.18
2024-04-30T00:21:36.529Z,7.18
2024-04-30T00:22:07.917Z,7.18
2024-04-30T00:22:38.603Z,7.35
2024-04-30T00:23:09.524Z,7.18
2024-04-30T00:23:40.509Z,7.08
2024-04-30T00:24:11.821Z,7.08
2024-04-30T00:24:42.569Z,7.08
2024-04-30T00:25:14.319Z,7.08
2024-04-30T00:25:44.499Z,7.08
2024-04-30T00:26:15.522Z,7.08
2024-04-30T00:26:46.472Z,7.25
2024-04-30T00:27:17.524Z,7.25
2024-04-30T00:27:48.541Z,7.25
2024-04-30T00:28:19.624Z,7.25
2024-04-30T00:28:50.542Z,7.25
2024-04-30T00:29:21.656Z,7.42
2024-04-30T00:29:52.581Z,7.25
2024-04-30T00:30:24.292Z,7.15
2024-04-30T00:30:54.896Z,7.15
2024-04-30T00:31:25.683Z,7.15
2024-04-30T00:31:56.591Z,7.15
2024-04-30T00:32:27.591Z,7.15
2024-04-30T00:32:58.560Z,7.05
2024-04-30T00:33:30.538Z,7.05
2024-04-30T00:34:00.702Z,7.05
2024-04-30T00:34:31.771Z,7.05
2024-04-30T00:35:02.713Z,6.96
2024-04-30T00:35:33.738Z,6.96
2024-04-30T00:36:04.604Z,6.96
2024-04-30T00:36:35.496Z,7.12
2024-04-30T00:37:06.662Z,7.12
2024-04-30T00:37:37.519Z,7.02
2024-04-30T00:38:08.566Z,7.02
2024-04-30T00:38:39.544Z,7.02
2024-04-30T00:39:10.508Z,7.02
2024-04-30T00:39:41.884Z,7.02
2024-04-30T00:40:13.012Z,7.09
2024-04-30T00:40:43.778Z,7.09
2024-04-30T00:41:14.501Z,6.99
2024-04-30T00:41:45.590Z,6.99
2024-04-30T00:42:17.063Z,6.99
2024-04-30T00:42:47.554Z,6.99
2024-04-30T00:43:18.528Z,6.99
2024-04-30T00:43:49.539Z,6.83
2024-04-30T00:44:20.536Z,6.83
2024-04-30T00:44:51.574Z,6.83
2024-04-30T00:45:23.190Z,6.83
2024-04-30T00:45:53.657Z,6.83
2024-04-30T00:46:24.580Z,6.83
2024-04-30T00:46:55.534Z,6.83
2024-04-30T00:47:26.741Z,6.83
2024-04-30T00:47:57.572Z,6.83
2024-04-30T00:48:28.970Z,6.83
2024-04-30T00:48:59.729Z,6.83
2024-04-30T00:49:30.643Z,6.83
2024-04-30T00:50:01.715Z,6.83
2024-04-30T00:50:32.524Z,6.83
2024-04-30T00:51:03.605Z,6.83
2024-04-30T00:51:34.555Z,6.83
2024-04-30T00:52:05.608Z,6.83
2024-04-30T00:52:36.900Z,6.73
2024-04-30T00:53:07.577Z,6.73
2024-04-30T00:53:38.532Z,6.73
2024-04-30T00:54:09.541Z,6.73
2024-04-30T00:54:40.584Z,6.73
2024-04-30T00:55:12.023Z,6.90
2024-04-30T00:55:43.335Z,6.90
2024-04-30T00:56:13.550Z,6.90
2024-04-30T00:56:44.530Z,6.80
2024-04-30T00:57:15.906Z,6.80
2024-04-30T00:57:46.754Z,6.80
2024-04-30T00:58:17.594Z,6.80
2024-04-30T00:58:48.538Z,6.80
2024-04-30T00:59:19.566Z,6.80
2024-04-30T00:59:50.587Z,6.70
2024-04-30T01:00:22.371Z,6.70
2024-04-30T01:00:52.697Z,6.70
2024-04-30T01:01:23.679Z,6.70
2024-04-30T01:01:54.674Z,6.70
2024-04-30T01:02:25.707Z,6.70
2024-04-30T01:02:57.115Z,6.70
2024-04-30T01:03:27.633Z,6.70
2024-04-30T01:03:57.810Z,6.70
2024-04-30T01:04:28.933Z,6.70
2024-04-30T01:05:01.341Z,6.70
2024-04-30T01:05:31.176Z,6.70
2024-04-30T01:06:02.381Z,6.70
2024-04-30T01:06:32.943Z,6.70
2024-04-30T01:07:03.985Z,6.70
2024-04-30T01:07:34.991Z,6.70
2024-04-30T01:08:05.917Z,6.70
2024-04-30T01:08:36.871Z,6.70
2024-04-30T01:09:07.820Z,6.60
2024-04-30T01:09:38.914Z,6.75
2024-04-30T01:10:10.154Z,6.75
2024-04-30T01:10:40.983Z,6.65
2024-04-30T01:11:11.928Z,6.65
2024-04-30T01:11:42.873Z,6.65
2024-04-30T01:12:13.913Z,6.65
2024-04-30T01:12:44.862Z,6.56
2024-04-30T01:13:15.858Z,6.56
2024-04-30T01:13:46.913Z,6.56
2024-04-30T01:14:17.880Z,6.56
2024-04-30T01:14:49.108Z,6.56
2024-04-30T01:15:22.295Z,6.46
2024-04-30T01:15:50.907Z,6.46
2024-04-30T01:16:21.923Z,6.46
2024-04-30T01:16:52.845Z,6.52
2024-04-30T01:17:24.055Z,6.52
2024-04-30T01:17:54.845Z,6.42
2024-04-30T01:18:25.952Z,6.42
2024-04-30T01:18:56.895Z,6.42
2024-04-30T01:19:27.894Z,6.42
2024-04-30T01:19:58.874Z,6.42
2024-04-30T01:20:30.298Z,6.42
2024-04-30T01:21:00.949Z,6.42
2024-04-30T01:21:31.835Z,6.33
2024-04-30T01:22:02.891Z,6.33
2024-04-30T01:22:34.109Z,6.33
2024-04-30T01:23:04.879Z,6.33
2024-04-30T01:23:36.096Z,6.23
2024-04-30T01:24:06.859Z,6.23
2024-04-30T01:24:37.844Z,6.33
2024-04-30T01:25:09.142Z,6.33
2024-04-30T01:25:39.896Z,6.49
2024-04-30T01:26:10.869Z,6.49
2024-04-30T01:26:41.861Z,6.49
2024-04-30T01:27:12.888Z,6.59
2024-04-30T01:27:43.852Z,6.69
2024-04-30T01:28:14.850Z,6.69
2024-04-30T01:28:45.884Z,6.69
2024-04-30T01:29:16.897Z,6.79
2024-04-30T01:29:47.837Z,6.79
2024-04-30T01:30:19.634Z,6.62
2024-04-30T01:30:49.877Z,6.62
2024-04-30T01:31:20.974Z,6.52
2024-04-30T01:31:51.824Z,6.52
2024-04-30T01:32:23.358Z,6.52
2024-04-30T01:32:54.068Z,6.42
2024-04-30T01:33:24.884Z,6.42
2024-04-30T01:33:55.829Z,6.42
2024-04-30T01:34:26.928Z,6.42
2024-04-30T01:34:57.858Z,6.42
2024-04-30T01:35:29.658Z,6.52
2024-04-30T01:35:59.863Z,6.52
2024-04-30T01:36:31.808Z,6.52
2024-04-30T01:37:01.896Z,6.52
2024-04-30T01:37:33.108Z,6.62
2024-04-30T01:38:03.927Z,6.62
2024-04-30T01:38:34.792Z,6.62
2024-04-30T01:39:05.891Z,6.62
2024-04-30T01:39:36.888Z,6.62
2024-04-30T01:40:08.222Z,6.62
2024-04-30T01:40:39.157Z,6.52
2024-04-30T01:41:10.221Z,6.52
2024-04-30T01:41:43.971Z,6.52
2024-04-30T01:42:12.228Z,6.52
2024-04-30T01:42:42.904Z,6.52
2024-04-30T01:43:13.882Z,6.52
2024-04-30T01:43:44.872Z,6.52
2024-04-30T01:44:15.830Z,6.52
2024-04-30T01:44:47.009Z,6.52
2024-04-30T01:45:18.454Z,6.42
2024-04-30T01:45:48.965Z,6.42
2024-04-30T01:46:19.913Z,6.42
2024-04-30T01:46:50.873Z,6.49
2024-04-30T01:47:21.990Z,6.49
2024-04-30T01:47:53.060Z,6.49
2024-04-30T01:48:24.254Z,6.59
2024-04-30T01:48:54.981Z,6.59
2024-04-30T01:49:26.093Z,6.59
2024-04-30T01:49:57.257Z,6.59
2024-04-30T01:50:28.137Z,6.59
2024-04-30T01:50:58.907Z,6.59
2024-04-30T01:51:29.973Z,6.59
2024-04-30T01:52:01.066Z,6.59
2024-04-30T01:52:32.006Z,6.59
2024-04-30T01:53:03.148Z,6.59
2024-04-30T01:53:33.948Z,6.69
2024-04-30T01:54:04.919Z,6.69
2024-04-30T01:54:35.935Z,6.69
2024-04-30T01:55:07.298Z,6.69
2024-04-30T01:55:37.930Z,6.59
2024-04-30T01:56:08.967Z,6.59
2024-04-30T01:56:40.011Z,6.59
2024-04-30T01:57:10.935Z,6.49
2024-04-30T01:57:41.986Z,6.49
2024-04-30T01:58:13.014Z,6.49
2024-04-30T01:58:44.287Z,6.49
2024-04-30T01:59:14.951Z,6.49
2024-04-30T01:59:46.374Z,6.49
2024-04-30T02:00:18.401Z,6.49
2024-04-30T02:00:48.411Z,6.49
2024-04-30T02:01:19.417Z,6.49
2024-04-30T02:01:50.406Z,6.39
2024-04-30T02:02:21.401Z,6.39
2024-04-30T02:02:52.375Z,6.39
2024-04-30T02:03:23.373Z,6.39
2024-04-30T02:03:54.690Z,6.39
2024-04-30T02:04:25.873Z,6.39
2024-04-30T02:04:56.767Z,6.39
2024-04-30T02:05:28.226Z,6.39
2024-04-30T02:05:58.918Z,6.39
2024-04-30T02:06:29.698Z,6.39
2024-04-30T02:07:00.666Z,6.39
2024-04-30T02:07:32.124Z,6.39
2024-04-30T02:08:04.923Z,6.39
2024-04-30T02:08:33.655Z,6.39
2024-04-30T02:09:04.591Z,6.39
2024-04-30T02:09:35.638Z,6.39
2024-04-30T02:10:06.969Z,6.39
2024-04-30T02:10:37.733Z,6.39
2024-04-30T02:11:08.744Z,6.39
2024-04-30T02:11:39.652Z,6.39
2024-04-30T02:12:10.725Z,6.39
2024-04-30T02:12:41.635Z,6.39
2024-04-30T02:13:12.675Z,6.39
2024-04-30T02:13:43.671Z,6.39
2024-04-30T02:14:14.638Z,6.29
2024-04-30T02:14:45.593Z,6.29
2024-04-30T02:15:17.219Z,6.29
2024-04-30T02:15:47.812Z,6.29
2024-04-30T02:16:18.943Z,6.29
2024-04-30T02:16:49.917Z,6.19
2024-04-30T02:17:20.615Z,6.19
2024-04-30T02:17:51.625Z,6.19
2024-04-30T02:18:22.673Z,6.19
2024-04-30T02:18:53.648Z,6.09
2024-04-30T02:19:24.698Z,6.09
2024-04-30T02:19:55.611Z,6.09
2024-04-30T02:20:27.127Z,6.25
2024-04-30T02:20:57.947Z,6.25
2024-04-30T02:21:28.603Z,6.25
2024-04-30T02:21:59.733Z,6.25
2024-04-30T02:22:30.718Z,6.25
2024-04-30T02:23:01.699Z,6.25
2024-04-30T02:23:32.600Z,6.25
2024-04-30T02:24:03.637Z,6.25
2024-04-30T02:24:34.678Z,6.25
2024-04-30T02:25:06.154Z,6.25
2024-04-30T02:25:36.682Z,6.25
2024-04-30T02:26:07.723Z,6.15
2024-04-30T02:26:38.702Z,6.15
2024-04-30T02:27:09.652Z,6.15
2024-04-30T02:27:40.640Z,6.15
2024-04-30T02:28:11.652Z,6.15
2024-04-30T02:28:42.598Z,6.05
2024-04-30T02:29:13.620Z,6.05
2024-04-30T02:29:44.589Z,6.05
2024-04-30T02:30:16.378Z,6.05
2024-04-30T02:30:46.891Z,6.05
2024-04-30T02:31:17.640Z,6.05
2024-04-30T02:31:48.643Z,6.05
2024-04-30T02:32:19.625Z,6.05
2024-04-30T02:32:50.926Z,6.05
2024-04-30T02:33:21.633Z,6.05
2024-04-30T02:33:53.193Z,6.05
2024-04-30T02:34:23.855Z,6.20
2024-04-30T02:34:54.629Z,6.20
2024-04-30T02:35:26.068Z,6.20
2024-04-30T02:35:57.066Z,6.20
2024-04-30T02:36:27.647Z,6.20
2024-04-30T02:36:58.712Z,6.10
2024-04-30T02:37:29.692Z,6.10
2024-04-30T02:38:00.606Z,6.10
2024-04-30T02:38:31.653Z,6.10
2024-04-30T02:39:02.591Z,6.00
2024-04-30T02:39:34.643Z,6.00
2024-04-30T02:40:04.870Z,6.00
2024-04-30T02:40:36.429Z,6.10
2024-04-30T02:41:06.674Z,6.10
2024-04-30T02:41:37.656Z,6.10
2024-04-30T02:42:08.654Z,6.10
2024-04-30T02:42:40.007Z,6.10
2024-04-30T02:43:10.681Z,6.10
2024-04-30T02:43:41.672Z,6.10
2024-04-30T02:44:12.683Z,6.10
2024-04-30T02:44:43.653Z,6.10
2024-04-30T02:45:16.336Z,6.20
2024-04-30T02:45:45.902Z,6.10
2024-04-30T02:46:16.710Z,6.10
2024-04-30T02:46:47.700Z,6.10
2024-04-30T02:47:18.685Z,6.10
2024-04-30T02:47:49.665Z,6.10
2024-04-30T02:48:20.641Z,6.00
2024-04-30T02:48:51.649Z,6.00
2024-04-30T02:49:22.806Z,6.00
2024-04-30T02:49:53.627Z,5.90
2024-04-30T02:50:25.325Z,5.90
2024-04-30T02:50:55.900Z,5.90
2024-04-30T02:51:26.926Z,5.80
2024-04-30T02:51:57.673Z,5.80
2024-04-30T02:52:28.679Z,5.70
2024-04-30T02:52:59.672Z,5.70
2024-04-30T02:53:30.624Z,5.70
2024-04-30T02:54:01.670Z,5.80
2024-04-30T02:54:32.619Z,5.80
2024-04-30T02:55:03.794Z,5.90
2024-04-30T02:55:34.720Z,5.90
2024-04-30T02:56:05.659Z,5.90
2024-04-30T02:56:36.632Z,5.90
2024-04-30T02:57:07.626Z,5.90
2024-04-30T02:57:38.621Z,5.90
2024-04-30T02:58:09.610Z,5.90
2024-04-30T02:58:40.629Z,5.90
2024-04-30T02:59:11.589Z,5.80
2024-04-30T02:59:41.823Z,5.80
2024-04-30T03:00:14.087Z,5.80
2024-04-30T03:00:43.962Z,5.70
2024-04-30T03:01:14.952Z,5.70
2024-04-30T03:01:46.016Z,5.70
2024-04-30T03:02:16.906Z,5.70
2024-04-30T03:02:47.870Z,5.60
2024-04-30T03:03:18.839Z,5.77
2024-04-30T03:03:50.153Z,5.77
2024-04-30T03:04:21.280Z,5.77
2024-04-30T03:04:52.286Z,5.77
2024-04-30T03:05:23.597Z,5.77
2024-04-30T03:05:54.223Z,5.77
2024-04-30T03:06:25.183Z,5.77
2024-04-30T03:06:56.211Z,5.77
2024-04-30T03:07:27.266Z,5.77
2024-04-30T03:07:58.127Z,5.67
2024-04-30T03:08:29.413Z,5.67
2024-04-30T03:09:00.467Z,5.67
2024-04-30T03:09:31.179Z,5.77
2024-04-30T03:10:02.300Z,5.77
2024-04-30T03:10:33.292Z,5.77
2024-04-30T03:11:05.264Z,5.77
2024-04-30T03:11:35.214Z,5.77
2024-04-30T03:12:06.208Z,5.77
2024-04-30T03:12:37.181Z,5.77
2024-04-30T03:13:08.224Z,5.77
2024-04-30T03:13:39.257Z,5.77
2024-04-30T03:14:10.224Z,5.77
2024-04-30T03:14:41.214Z,5.77
2024-04-30T03:15:15.450Z,5.77
2024-04-30T03:15:43.146Z,5.77
2024-04-30T03:16:14.186Z,5.77
2024-04-30T03:16:45.250Z,5.77
2024-04-30T03:17:16.363Z,5.77
2024-04-30T03:17:47.722Z,5.67
2024-04-30T03:18:18.193Z,5.67
2024-04-30T03:18:49.273Z,5.67
2024-04-30T03:19:20.241Z,5.57
2024-04-30T03:19:51.180Z,5.57
2024-04-30T03:20:22.431Z,5.57
2024-04-30T03:20:53.169Z,5.57
2024-04-30T03:21:24.164Z,5.67
2024-04-30T03:21:55.195Z,5.67
2024-04-30T03:22:26.108Z,5.67
2024-04-30T03:22:57.217Z,5.67
2024-04-30T03:23:28.161Z,5.67
2024-04-30T03:23:59.436Z,5.67
2024-04-30T03:24:30.234Z,5.67
2024-04-30T03:25:01.655Z,5.67
2024-04-30T03:25:32.330Z,5.57
2024-04-30T03:26:03.200Z,5.57
2024-04-30T03:26:34.847Z,5.57
2024-04-30T03:27:05.182Z,5.57
2024-04-30T03:27:36.221Z,5.57
2024-04-30T03:28:07.270Z,5.67
2024-04-30T03:28:38.261Z,5.67
2024-04-30T03:29:09.443Z,5.67
2024-04-30T03:29:40.172Z,5.67
2024-04-30T03:30:12.414Z,5.67
2024-04-30T03:30:42.194Z,5.67
2024-04-30T03:31:13.246Z,5.67
2024-04-30T03:31:44.200Z,5.67
2024-04-30T03:32:15.249Z,5.67
2024-04-30T03:32:46.318Z,5.57
2024-04-30T03:33:17.302Z,5.57
2024-04-30T03:33:48.207Z,5.57
2024-04-30T03:34:19.456Z,5.47
2024-04-30T03:34:50.209Z,5.47
2024-04-30T03:35:27.355Z,5.47
2024-04-30T03:35:52.286Z,5.47
2024-04-30T03:36:23.528Z,5.47
2024-04-30T03:36:54.182Z,5.47
2024-04-30T03:37:25.221Z,5.47
2024-04-30T03:37:56.207Z,5.47
2024-04-30T03:38:27.201Z,5.47
2024-04-30T03:38:58.132Z,5.47
2024-04-30T03:39:29.233Z,5.37
2024-04-30T03:40:00.318Z,5.37
2024-04-30T03:40:31.719Z,5.47
2024-04-30T03:41:02.141Z,5.47
2024-04-30T03:41:33.168Z,5.47
2024-04-30T03:42:04.197Z,5.47
2024-04-30T03:42:36.197Z,5.47
2024-04-30T03:43:06.237Z,5.37
2024-04-30T03:43:37.436Z,5.37
2024-04-30T03:44:08.483Z,5.37
2024-04-30T03:44:39.396Z,5.47
2024-04-30T03:45:10.667Z,5.47
2024-04-30T03:45:41.192Z,5.47
2024-04-30T03:46:12.234Z,5.47
2024-04-30T03:46:43.336Z,5.47
2024-04-30T03:47:14.247Z,5.47
2024-04-30T03:47:45.281Z,5.37
2024-04-30T03:48:16.578Z,5.37
2024-04-30T03:48:47.271Z,5.37
2024-04-30T03:49:18.258Z,5.37
2024-04-30T03:49:49.288Z,5.47
2024-04-30T03:50:20.793Z,5.47
2024-04-30T03:50:51.273Z,5.47
2024-04-30T03:51:22.211Z,5.62
2024-04-30T03:51:53.192Z,5.57
2024-04-30T03:52:24.271Z,5.57
2024-04-30T03:52:55.484Z,5.67
2024-04-30T03:53:26.218Z,5.67
2024-04-30T03:53:57.239Z,5.67
2024-04-30T03:54:28.258Z,5.57
2024-04-30T03:54:59.246Z,5.47
2024-04-30T03:55:31.028Z,5.47
2024-04-30T03:56:01.213Z,5.47
2024-04-30T03:56:32.276Z,5.37
2024-04-30T03:57:03.295Z,5.37
2024-04-30T03:57:34.241Z,5.37
2024-04-30T03:58:05.295Z,5.37
2024-04-30T03:58:36.261Z,5.37
2024-04-30T03:59:07.517Z,5.47
2024-04-30T03:59:37.827Z,5.47
2024-04-30T04:00:09.482Z,5.47
2024-04-30T04:00:39.955Z,5.47
2024-04-30T04:01:10.959Z,5.47
2024-04-30T04:01:42.196Z,5.47
2024-04-30T04:02:12.835Z,5.47
2024-04-30T04:02:43.931Z,5.47
2024-04-30T04:03:14.886Z,5.47
2024-04-30T04:03:46.188Z,5.47
2024-04-30T04:04:17.244Z,5.47
2024-04-30T04:04:48.101Z,5.47
2024-04-30T04:05:20.953Z,5.37
2024-04-30T04:05:50.243Z,5.37
2024-04-30T04:06:21.224Z,5.37
2024-04-30T04:06:52.251Z,5.37
2024-04-30T04:07:23.232Z,5.37
2024-04-30T04:07:54.333Z,5.47
2024-04-30T04:08:25.212Z,5.47
2024-04-30T04:08:56.134Z,5.47
2024-04-30T04:09:27.205Z,5.47
2024-04-30T04:09:58.147Z,5.47
2024-04-30T04:10:29.839Z,5.37
2024-04-30T04:11:00.211Z,5.37
2024-04-30T04:11:31.160Z,5.37
2024-04-30T04:12:02.268Z,5.37
2024-04-30T04:12:33.121Z,5.37
2024-04-30T04:13:04.217Z,5.37
2024-04-30T04:13:35.208Z,5.37
2024-04-30T04:14:07.094Z,5.37
2024-04-30T04:14:37.192Z,5.37
2024-04-30T04:15:08.615Z,5.47
2024-04-30T04:15:39.231Z,5.47
2024-04-30T04:16:10.559Z,5.47
2024-04-30T04:16:41.294Z,5.47
2024-04-30T04:17:12.277Z,5.37
2024-04-30T04:17:43.261Z,5.37
2024-04-30T04:18:14.519Z,5.37
2024-04-30T04:18:45.205Z,5.37
2024-04-30T04:19:16.544Z,5.37
2024-04-30T04:19:47.179Z,5.37
2024-04-30T04:20:27.659Z,5.37
2024-04-30T04:20:49.177Z,5.37
2024-04-30T04:21:22.553Z,5.37
2024-04-30T04:21:51.194Z,5.37
2024-04-30T04:22:22.661Z,5.37
2024-04-30T04:22:53.183Z,5.37
2024-04-30T04:23:24.155Z,5.37
2024-04-30T04:23:55.091Z,5.37
2024-04-30T04:24:26.221Z,5.37
2024-04-30T04:24:57.168Z,5.47
2024-04-30T04:25:28.479Z,5.47
2024-04-30T04:25:59.122Z,5.47
2024-04-30T04:26:30.194Z,5.47
2024-04-30T04:27:01.128Z,5.47
2024-04-30T04:27:32.401Z,5.47
2024-04-30T04:28:03.379Z,5.47
2024-04-30T04:28:34.303Z,5.47
2024-04-30T04:29:05.184Z,5.47
2024-04-30T04:29:36.198Z,5.47
2024-04-30T04:30:07.624Z,5.47
2024-04-30T04:30:38.304Z,5.47
2024-04-30T04:31:09.198Z,5.47
2024-04-30T04:31:40.275Z,5.47
2024-04-30T04:32:11.211Z,5.47
2024-04-30T04:32:42.539Z,5.47
2024-04-30T04:33:13.230Z,5.47
2024-04-30T04:33:44.205Z,5.47
2024-04-30T04:34:15.283Z,5.47
2024-04-30T04:34:46.178Z,5.47
2024-04-30T04:35:17.394Z,5.47
2024-04-30T04:35:48.132Z,5.47
2024-04-30T04:36:19.503Z,5.47
2024-04-30T04:36:50.444Z,5.47
2024-04-30T04:37:22.426Z,5.47
2024-04-30T04:37:52.481Z,5.47
2024-04-30T04:38:23.171Z,5.47
2024-04-30T04:38:54.210Z,5.47
2024-04-30T04:39:25.266Z,5.47
2024-04-30T04:39:56.190Z,5.47
2024-04-30T04:40:27.652Z,5.47
2024-04-30T04:40:58.153Z,5.37
2024-04-30T04:41:29.142Z,5.37
2024-04-30T04:42:00.178Z,5.37
2024-04-30T04:42:31.235Z,5.37
2024-04-30T04:43:02.300Z,5.37
2024-04-30T04:43:33.532Z,5.37
2024-04-30T04:44:04.197Z,5.17
2024-04-30T04:44:35.192Z,5.32
2024-04-30T04:45:06.696Z,5.17
2024-04-30T04:45:38.354Z,5.17
2024-04-30T04:46:08.278Z,5.17
2024-04-30T04:46:39.200Z,5.17
2024-04-30T04:47:10.319Z,5.27
2024-04-30T04:47:41.193Z,5.42
2024-04-30T04:48:12.511Z,5.42
2024-04-30T04:48:43.689Z,5.42
2024-04-30T04:49:14.226Z,5.42
2024-04-30T04:49:45.157Z,5.52
2024-04-30T04:50:16.491Z,5.52
2024-04-30T04:50:47.170Z,5.52
2024-04-30T04:51:18.187Z,5.52
2024-04-30T04:51:49.180Z,5.62
2024-04-30T04:52:20.231Z,5.62
2024-04-30T04:52:51.164Z,5.72
2024-04-30T04:53:22.173Z,5.72
2024-04-30T04:53:53.638Z,5.72
2024-04-30T04:54:24.703Z,5.72
2024-04-30T04:54:55.144Z,5.72
2024-04-30T04:55:26.421Z,5.72
2024-04-30T04:55:57.218Z,5.72
2024-04-30T04:56:28.159Z,5.82
2024-04-30T04:56:59.214Z,5.82
2024-04-30T04:57:30.191Z,5.82
2024-04-30T04:58:01.225Z,5.82
2024-04-30T04:58:32.243Z,5.82
2024-04-30T04:59:03.246Z,5.82
2024-04-30T04:59:34.313Z,5.82
2024-04-30T05:00:05.826Z,5.82
2024-04-30T05:00:36.409Z,5.82
2024-04-30T05:01:09.574Z,5.82
2024-04-30T05:01:38.363Z,5.92
2024-04-30T05:02:09.377Z,5.92
2024-04-30T05:02:40.336Z,5.92
2024-04-30T05:03:11.611Z,5.92
2024-04-30T05:03:42.503Z,5.92
2024-04-30T05:04:13.694Z,5.92
2024-04-30T05:04:44.585Z,5.92
2024-04-30T05:05:15.921Z,6.02
2024-04-30T05:05:46.523Z,6.02
2024-04-30T05:06:17.662Z,6.02
2024-04-30T05:06:48.557Z,6.12
2024-04-30T05:07:19.561Z,6.12
2024-04-30T05:07:50.695Z,6.12
2024-04-30T05:08:21.574Z,6.12
2024-04-30T05:08:52.806Z,6.12
2024-04-30T05:09:23.519Z,6.12
2024-04-30T05:09:54.554Z,6.12
2024-04-30T05:10:26.040Z,6.12
2024-04-30T05:10:56.663Z,6.12
2024-04-30T05:11:27.666Z,6.22
2024-04-30T05:11:58.840Z,6.22
2024-04-30T05:12:29.483Z,6.22
2024-04-30T05:13:00.584Z,6.07
2024-04-30T05:13:31.671Z,6.07
2024-04-30T05:14:02.789Z,6.07
2024-04-30T05:14:33.523Z,6.07
2024-04-30T05:15:05.112Z,6.07
2024-04-30T05:15:35.595Z,6.07
2024-04-30T05:16:06.604Z,6.07
2024-04-30T05:16:37.747Z,6.22
2024-04-30T05:17:09.545Z,6.22
2024-04-30T05:17:39.642Z,6.22
2024-04-30T05:18:10.800Z,6.22
2024-04-30T05:18:41.600Z,6.22
2024-04-30T05:19:12.592Z,6.22
2024-04-30T05:19:43.587Z,6.22
2024-04-30T05:20:15.254Z,6.22
2024-04-30T05:20:45.800Z,6.32
2024-04-30T05:21:16.562Z,6.32
2024-04-30T05:21:47.640Z,6.32
2024-04-30T05:22:18.603Z,6.32
2024-04-30T05:22:49.520Z,6.42
2024-04-30T05:23:20.546Z,6.42
2024-04-30T05:23:51.628Z,6.52
2024-04-30T05:24:22.602Z,6.52
2024-04-30T05:24:53.538Z,6.62
2024-04-30T05:25:24.855Z,6.62
2024-04-30T05:25:55.515Z,6.62
2024-04-30T05:26:26.768Z,6.62
2024-04-30T05:26:57.571Z,6.71
2024-04-30T05:27:28.823Z,6.71
2024-04-30T05:27:59.537Z,6.71
2024-04-30T05:28:30.822Z,6.81
2024-04-30T05:29:01.601Z,6.81
2024-04-30T05:29:32.898Z,6.81
2024-04-30T05:30:04.000Z,6.81
2024-04-30T05:30:34.570Z,6.91
2024-04-30T05:31:05.630Z,6.91
2024-04-30T05:31:36.621Z,6.91
2024-04-30T05:32:07.952Z,7.01
2024-04-30T05:32:38.680Z,7.01
2024-04-30T05:33:09.708Z,6.86
2024-04-30T05:33:40.633Z,6.86
2024-04-30T05:34:11.583Z,6.96
2024-04-30T05:34:42.632Z,6.96
2024-04-30T05:35:13.998Z,6.96
2024-04-30T05:35:44.591Z,6.96
2024-04-30T05:36:16.447Z,6.96
2024-04-30T05:36:46.806Z,6.96
2024-04-30T05:37:17.633Z,6.96
2024-04-30T05:37:48.597Z,7.06
2024-04-30T05:38:19.878Z,7.06
2024-04-30T05:38:50.585Z,7.16
2024-04-30T05:39:21.545Z,7.26
2024-04-30T05:39:52.581Z,7.26
2024-04-30T05:40:23.947Z,7.26
2024-04-30T05:40:54.644Z,7.26
2024-04-30T05:41:25.516Z,7.26
2024-04-30T05:41:56.660Z,7.26
2024-04-30T05:42:27.545Z,7.36
2024-04-30T05:42:58.818Z,7.36
2024-04-30T05:43:29.606Z,7.46
2024-04-30T05:44:00.545Z,7.46
2024-04-30T05:44:31.545Z,7.56
2024-04-30T05:45:02.986Z,7.56
2024-04-30T05:45:33.581Z,7.66
2024-04-30T05:46:04.682Z,7.66
2024-04-30T05:46:35.721Z,7.75
2024-04-30T05:47:07.136Z,7.85
2024-04-30T05:47:37.592Z,7.95
2024-04-30T05:48:08.856Z,7.95
2024-04-30T05:48:40.802Z,8.05
2024-04-30T05:49:10.653Z,8.05
2024-04-30T05:49:41.605Z,8.15
2024-04-30T05:50:12.820Z,8.15
2024-04-30T05:50:43.579Z,8.15
2024-04-30T05:51:14.576Z,7.99
2024-04-30T05:51:45.639Z,8.09
2024-04-30T05:52:16.644Z,8.09
2024-04-30T05:52:47.659Z,8.09
2024-04-30T05:53:18.758Z,8.18
2024-04-30T05:53:51.591Z,8.28
2024-04-30T05:54:20.584Z,8.38
2024-04-30T05:54:51.599Z,8.38
2024-04-30T05:55:23.003Z,8.48
2024-04-30T05:55:53.849Z,8.33
2024-04-30T05:56:24.575Z,8.33
2024-04-30T05:56:55.598Z,8.33
2024-04-30T05:57:26.575Z,8.33
2024-04-30T05:57:57.613Z,8.27
2024-04-30T05:58:28.838Z,8.27
2024-04-30T05:58:59.561Z,8.37
2024-04-30T05:59:30.196Z,8.37
2024-04-30T06:00:01.606Z,8.37
2024-04-30T06:00:32.320Z,8.47
2024-04-30T06:01:03.234Z,8.40
2024-04-30T06:01:34.217Z,8.33
2024-04-30T06:02:05.165Z,8.37
2024-04-30T06:02:36.199Z,8.21
2024-04-30T06:03:07.210Z,8.21
2024-04-30T06:03:38.509Z,8.21
2024-04-30T06:04:09.544Z,8.21
2024-04-30T06:04:40.931Z,8.21
2024-04-30T06:05:12.451Z,8.30
2024-04-30T06:05:42.543Z,8.14
2024-04-30T06:06:13.905Z,8.30
2024-04-30T06:06:44.440Z,8.57
2024-04-30T06:07:15.497Z,8.57
2024-04-30T06:07:46.563Z,8.67
2024-04-30T06:08:17.493Z,8.77
2024-04-30T06:08:48.515Z,8.77
2024-04-30T06:09:19.483Z,8.60
2024-04-30T06:09:50.533Z,8.43
2024-04-30T06:10:22.449Z,8.43
2024-04-30T06:10:52.666Z,8.43
2024-04-30T06:11:23.442Z,8.53
2024-04-30T06:11:54.471Z,8.46
2024-04-30T06:12:25.505Z,8.29
2024-04-30T06:12:56.522Z,8.39
2024-04-30T06:13:27.856Z,8.39
2024-04-30T06:13:58.538Z,8.49
2024-04-30T06:14:29.467Z,8.49
2024-04-30T06:15:01.344Z,8.58
2024-04-30T06:15:31.567Z,8.58
2024-04-30T06:16:02.576Z,8.50
2024-04-30T06:16:33.598Z,8.50
2024-04-30T06:17:04.512Z,8.85
2024-04-30T06:17:35.554Z,8.85
2024-04-30T06:18:06.599Z,8.78
2024-04-30T06:18:37.618Z,8.60
2024-04-30T06:19:08.512Z,9.05
2024-04-30T06:19:39.728Z,8.70
2024-04-30T06:20:11.680Z,8.79
2024-04-30T06:20:41.563Z,8.61
2024-04-30T06:21:14.285Z,8.98
2024-04-30T06:21:45.259Z,8.98
2024-04-30T06:22:14.787Z,9.07
2024-04-30T06:22:45.568Z,9.07
2024-04-30T06:23:16.509Z,8.64
2024-04-30T06:23:47.807Z,8.81
2024-04-30T06:24:18.469Z,8.64
2024-04-30T06:24:49.492Z,8.81
2024-04-30T06:25:21.007Z,8.99
2024-04-30T06:25:51.532Z,8.91
2024-04-30T06:26:22.510Z,8.91
2024-04-30T06:26:53.535Z,9.27
2024-04-30T06:27:24.481Z,9.37
2024-04-30T06:27:55.529Z,9.37
2024-04-30T06:28:26.792Z,9.10
2024-04-30T06:28:57.517Z,8.93
2024-04-30T06:29:28.459Z,8.93
2024-04-30T06:29:59.529Z,8.93
2024-04-30T06:30:31.222Z,8.93
2024-04-30T06:31:01.871Z,9.10
2024-04-30T06:31:32.529Z,9.10
2024-04-30T06:32:03.504Z,8.93
2024-04-30T06:32:34.619Z,8.93
2024-04-30T06:33:05.577Z,9.10
2024-04-30T06:33:36.782Z,9.10
2024-04-30T06:34:07.554Z,9.38
2024-04-30T06:34:41.016Z,9.38
2024-04-30T06:35:09.776Z,9.13
2024-04-30T06:35:40.493Z,9.30
2024-04-30T06:36:11.777Z,9.13
2024-04-30T06:36:42.602Z,9.13
2024-04-30T06:37:13.540Z,9.22
2024-04-30T06:37:44.552Z,9.58
2024-04-30T06:38:15.522Z,9.04
2024-04-30T06:38:46.520Z,9.22
2024-04-30T06:39:17.497Z,9.67
2024-04-30T06:39:48.813Z,9.49
2024-04-30T06:40:20.043Z,9.42
2024-04-30T06:40:50.572Z,9.42
2024-04-30T06:41:21.512Z,9.42
2024-04-30T06:41:52.646Z,9.52
2024-04-30T06:42:23.535Z,9.69
2024-04-30T06:42:54.486Z,9.52
2024-04-30T06:43:25.485Z,9.33
2024-04-30T06:43:56.520Z,9.78
2024-04-30T06:44:27.522Z,9.43
2024-04-30T06:44:58.482Z,9.43
2024-04-30T06:45:30.035Z,9.53
2024-04-30T06:46:00.543Z,9.71
2024-04-30T06:46:31.576Z,9.53
2024-04-30T06:47:02.576Z,9.26
2024-04-30T06:47:33.564Z,9.44
2024-04-30T06:48:04.643Z,9.44
2024-04-30T06:48:36.174Z,9.35
2024-04-30T06:49:06.520Z,9.35
2024-04-30T06:49:37.561Z,9.45
2024-04-30T06:50:08.829Z,9.64
2024-04-30T06:50:39.786Z,9.73
2024-04-30T06:51:10.627Z,9.65
2024-04-30T06:51:42.672Z,9.45
2024-04-30T06:52:12.650Z,9.55
2024-04-30T06:52:43.626Z,9.55